sensor_id;sensor_type;location;lat;lon;timestamp;P1;durP1;ratioP1;P2;durP2;ratioP2
22752;SDS011;11543;43.144;24.684;2022-08-21T00:02:04;8.20;;;3.60;;
22752;SDS011;11543;43.144;24.684;2022-08-21T00:04:39;7.82;;;3.10;;
22752;SDS011;11543;43.144;24.684;2022-08-21T00:07:04;8.10;;;3.33;;
22752;SDS011;11543;43.144;24.684;2022-08-21T00:09:30;9.60;;;3.40;;
22752;SDS011;11543;43.144;24.684;2022-08-21T00:11:55;7.78;;;3.03;;
22752;SDS011;11543;43.144;24.684;2022-08-21T00:14:21;7.38;;;2.90;;
22752;SDS011;11543;43.144;24.684;2022-08-21T00:16:46;9.73;;;3.13;;
22752;SDS011;11543;43.144;24.684;2022-08-21T00:19:14;12.45;;;3.25;;
22752;SDS011;11543;43.144;24.684;2022-08-21T00:21:40;7.95;;;3.45;;
22752;SDS011;11543;43.144;24.684;2022-08-21T00:24:06;8.00;;;3.38;;
22752;SDS011;11543;43.144;24.684;2022-08-21T00:26:31;11.13;;;3.55;;
22752;SDS011;11543;43.144;24.684;2022-08-21T00:28:57;8.02;;;3.60;;
22752;SDS011;11543;43.144;24.684;2022-08-21T00:31:22;7.15;;;3.40;;
22752;SDS011;11543;43.144;24.684;2022-08-21T00:33:48;6.63;;;3.13;;
22752;SDS011;11543;43.144;24.684;2022-08-21T00:36:14;9.02;;;3.45;;
22752;SDS011;11543;43.144;24.684;2022-08-21T00:38:39;11.57;;;3.55;;
22752;SDS011;11543;43.144;24.684;2022-08-21T00:41:07;11.07;;;4.00;;
22752;SDS011;11543;43.144;24.684;2022-08-21T00:43:35;12.18;;;3.80;;
22752;SDS011;11543;43.144;24.684;2022-08-21T00:46:02;8.02;;;4.05;;
22752;SDS011;11543;43.144;24.684;2022-08-21T00:48:30;8.00;;;3.30;;
22752;SDS011;11543;43.144;24.684;2022-08-21T00:51:06;10.45;;;4.05;;
22752;SDS011;11543;43.144;24.684;2022-08-21T00:53:38;7.70;;;3.90;;
22752;SDS011;11543;43.144;24.684;2022-08-21T00:56:07;12.00;;;4.57;;
22752;SDS011;11543;43.144;24.684;2022-08-21T00:58:40;8.95;;;4.15;;
22752;SDS011;11543;43.144;24.684;2022-08-21T01:01:08;8.00;;;3.83;;
22752;SDS011;11543;43.144;24.684;2022-08-21T01:03:34;11.05;;;4.18;;
22752;SDS011;11543;43.144;24.684;2022-08-21T01:06:00;9.95;;;3.90;;
22752;SDS011;11543;43.144;24.684;2022-08-21T01:08:27;9.85;;;4.15;;
22752;SDS011;11543;43.144;24.684;2022-08-21T01:10:54;14.48;;;4.18;;
22752;SDS011;11543;43.144;24.684;2022-08-21T01:13:20;8.18;;;3.65;;
22752;SDS011;11543;43.144;24.684;2022-08-21T01:15:49;10.38;;;4.88;;
22752;SDS011;11543;43.144;24.684;2022-08-21T01:18:19;6.97;;;4.00;;
22752;SDS011;11543;43.144;24.684;2022-08-21T01:21:02;9.90;;;4.57;;
22752;SDS011;11543;43.144;24.684;2022-08-21T01:23:31;9.82;;;4.22;;
22752;SDS011;11543;43.144;24.684;2022-08-21T01:25:56;7.72;;;4.20;;
22752;SDS011;11543;43.144;24.684;2022-08-21T01:28:22;9.57;;;4.35;;
22752;SDS011;11543;43.144;24.684;2022-08-21T01:30:50;9.63;;;4.53;;
22752;SDS011;11543;43.144;24.684;2022-08-21T01:33:20;10.55;;;4.45;;
22752;SDS011;11543;43.144;24.684;2022-08-21T01:35:49;8.25;;;4.40;;
22752;SDS011;11543;43.144;24.684;2022-08-21T01:38:14;10.82;;;4.32;;
22752;SDS011;11543;43.144;24.684;2022-08-21T01:40:40;12.27;;;4.55;;
22752;SDS011;11543;43.144;24.684;2022-08-21T01:43:06;8.50;;;4.05;;
22752;SDS011;11543;43.144;24.684;2022-08-21T01:45:31;9.20;;;3.92;;
22752;SDS011;11543;43.144;24.684;2022-08-21T01:47:57;10.07;;;4.03;;
22752;SDS011;11543;43.144;24.684;2022-08-21T01:50:22;7.28;;;4.20;;
22752;SDS011;11543;43.144;24.684;2022-08-21T01:52:48;7.55;;;4.00;;
22752;SDS011;11543;43.144;24.684;2022-08-21T01:55:15;7.78;;;3.80;;
22752;SDS011;11543;43.144;24.684;2022-08-21T01:57:43;10.40;;;4.20;;
22752;SDS011;11543;43.144;24.684;2022-08-21T02:00:09;8.50;;;3.72;;
22752;SDS011;11543;43.144;24.684;2022-08-21T02:02:37;12.88;;;4.07;;
22752;SDS011;11543;43.144;24.684;2022-08-21T02:05:04;10.55;;;4.35;;
22752;SDS011;11543;43.144;24.684;2022-08-21T02:07:37;10.32;;;4.10;;
22752;SDS011;11543;43.144;24.684;2022-08-21T02:10:04;10.70;;;4.20;;
22752;SDS011;11543;43.144;24.684;2022-08-21T02:12:31;7.40;;;3.95;;
22752;SDS011;11543;43.144;24.684;2022-08-21T02:14:56;8.20;;;3.72;;
22752;SDS011;11543;43.144;24.684;2022-08-21T02:17:22;12.57;;;4.25;;
22752;SDS011;11543;43.144;24.684;2022-08-21T02:19:48;8.90;;;4.68;;
22752;SDS011;11543;43.144;24.684;2022-08-21T02:22:15;8.27;;;4.00;;
22752;SDS011;11543;43.144;24.684;2022-08-21T02:24:40;8.60;;;4.47;;
22752;SDS011;11543;43.144;24.684;2022-08-21T02:27:06;9.18;;;4.15;;
22752;SDS011;11543;43.144;24.684;2022-08-21T02:29:31;8.68;;;4.00;;
22752;SDS011;11543;43.144;24.684;2022-08-21T02:31:57;12.88;;;4.65;;
22752;SDS011;11543;43.144;24.684;2022-08-21T02:34:22;8.70;;;4.25;;
22752;SDS011;11543;43.144;24.684;2022-08-21T02:36:48;9.60;;;4.13;;
22752;SDS011;11543;43.144;24.684;2022-08-21T02:39:13;10.50;;;3.80;;
22752;SDS011;11543;43.144;24.684;2022-08-21T02:41:38;9.23;;;3.88;;
22752;SDS011;11543;43.144;24.684;2022-08-21T02:44:04;7.65;;;4.20;;
22752;SDS011;11543;43.144;24.684;2022-08-21T02:46:29;9.55;;;3.78;;
22752;SDS011;11543;43.144;24.684;2022-08-21T02:48:55;9.20;;;3.92;;
22752;SDS011;11543;43.144;24.684;2022-08-21T02:51:21;9.02;;;4.15;;
22752;SDS011;11543;43.144;24.684;2022-08-21T02:53:47;11.05;;;4.28;;
22752;SDS011;11543;43.144;24.684;2022-08-21T02:56:15;12.77;;;4.40;;
22752;SDS011;11543;43.144;24.684;2022-08-21T02:58:43;8.73;;;4.00;;
22752;SDS011;11543;43.144;24.684;2022-08-21T03:01:14;11.05;;;4.18;;
22752;SDS011;11543;43.144;24.684;2022-08-21T03:03:41;10.18;;;3.72;;
22752;SDS011;11543;43.144;24.684;2022-08-21T03:06:08;10.02;;;4.38;;
22752;SDS011;11543;43.144;24.684;2022-08-21T03:08:36;10.23;;;4.40;;
22752;SDS011;11543;43.144;24.684;2022-08-21T03:11:02;10.13;;;3.53;;
22752;SDS011;11543;43.144;24.684;2022-08-21T03:13:28;13.75;;;4.20;;
22752;SDS011;11543;43.144;24.684;2022-08-21T03:15:54;9.73;;;4.03;;
22752;SDS011;11543;43.144;24.684;2022-08-21T03:18:20;8.38;;;4.20;;
22752;SDS011;11543;43.144;24.684;2022-08-21T03:20:46;13.20;;;4.22;;
22752;SDS011;11543;43.144;24.684;2022-08-21T03:23:12;7.65;;;4.00;;
22752;SDS011;11543;43.144;24.684;2022-08-21T03:25:38;16.75;;;4.07;;
22752;SDS011;11543;43.144;24.684;2022-08-21T03:28:05;7.05;;;3.90;;
22752;SDS011;11543;43.144;24.684;2022-08-21T03:30:32;8.02;;;4.15;;
22752;SDS011;11543;43.144;24.684;2022-08-21T03:32:58;10.63;;;4.05;;
22752;SDS011;11543;43.144;24.684;2022-08-21T03:35:24;11.13;;;4.15;;
22752;SDS011;11543;43.144;24.684;2022-08-21T03:37:50;8.18;;;3.85;;
22752;SDS011;11543;43.144;24.684;2022-08-21T03:40:17;10.32;;;3.67;;
22752;SDS011;11543;43.144;24.684;2022-08-21T03:42:43;7.30;;;3.85;;
22752;SDS011;11543;43.144;24.684;2022-08-21T03:45:12;13.82;;;4.00;;
22752;SDS011;11543;43.144;24.684;2022-08-21T03:47:38;11.02;;;3.80;;
22752;SDS011;11543;43.144;24.684;2022-08-21T03:50:04;9.23;;;4.05;;
22752;SDS011;11543;43.144;24.684;2022-08-21T03:52:30;8.18;;;3.85;;
22752;SDS011;11543;43.144;24.684;2022-08-21T03:54:55;10.55;;;4.38;;
22752;SDS011;11543;43.144;24.684;2022-08-21T03:57:21;11.00;;;4.30;;
22752;SDS011;11543;43.144;24.684;2022-08-21T03:59:47;9.50;;;3.72;;
22752;SDS011;11543;43.144;24.684;2022-08-21T04:02:12;8.68;;;4.25;;
22752;SDS011;11543;43.144;24.684;2022-08-21T04:04:44;12.05;;;4.15;;
22752;SDS011;11543;43.144;24.684;2022-08-21T04:07:10;8.43;;;3.95;;
22752;SDS011;11543;43.144;24.684;2022-08-21T04:09:35;9.50;;;4.25;;
22752;SDS011;11543;43.144;24.684;2022-08-21T04:12:00;11.60;;;4.95;;
22752;SDS011;11543;43.144;24.684;2022-08-21T04:14:27;8.68;;;4.03;;
22752;SDS011;11543;43.144;24.684;2022-08-21T04:16:52;9.98;;;4.28;;
22752;SDS011;11543;43.144;24.684;2022-08-21T04:19:17;10.02;;;4.60;;
22752;SDS011;11543;43.144;24.684;2022-08-21T04:21:43;11.98;;;4.80;;
22752;SDS011;11543;43.144;24.684;2022-08-21T04:24:09;7.63;;;4.03;;
22752;SDS011;11543;43.144;24.684;2022-08-21T04:26:35;12.13;;;4.22;;
22752;SDS011;11543;43.144;24.684;2022-08-21T04:29:01;8.38;;;4.43;;
22752;SDS011;11543;43.144;24.684;2022-08-21T04:31:27;13.35;;;4.80;;
22752;SDS011;11543;43.144;24.684;2022-08-21T04:33:53;9.68;;;4.70;;
22752;SDS011;11543;43.144;24.684;2022-08-21T04:36:21;13.48;;;4.57;;
22752;SDS011;11543;43.144;24.684;2022-08-21T04:38:46;13.50;;;5.13;;
22752;SDS011;11543;43.144;24.684;2022-08-21T04:41:12;13.57;;;4.70;;
22752;SDS011;11543;43.144;24.684;2022-08-21T04:43:38;10.18;;;5.00;;
22752;SDS011;11543;43.144;24.684;2022-08-21T04:46:04;12.93;;;4.50;;
22752;SDS011;11543;43.144;24.684;2022-08-21T04:48:30;12.00;;;4.45;;
22752;SDS011;11543;43.144;24.684;2022-08-21T04:53:50;10.98;;;4.25;;
22752;SDS011;11543;43.144;24.684;2022-08-21T04:58:57;8.60;;;4.35;;
22752;SDS011;11543;43.144;24.684;2022-08-21T05:01:25;10.23;;;4.75;;
22752;SDS011;11543;43.144;24.684;2022-08-21T05:03:55;9.02;;;4.60;;
22752;SDS011;11543;43.144;24.684;2022-08-21T05:06:23;8.20;;;4.57;;
22752;SDS011;11543;43.144;24.684;2022-08-21T05:08:50;8.85;;;4.30;;
22752;SDS011;11543;43.144;24.684;2022-08-21T05:11:17;12.23;;;4.30;;
22752;SDS011;11543;43.144;24.684;2022-08-21T05:13:44;12.90;;;6.72;;
22752;SDS011;11543;43.144;24.684;2022-08-21T05:16:10;73.75;;;41.72;;
22752;SDS011;11543;43.144;24.684;2022-08-21T05:18:35;50.15;;;30.83;;
22752;SDS011;11543;43.144;24.684;2022-08-21T05:21:01;36.65;;;21.15;;
22752;SDS011;11543;43.144;24.684;2022-08-21T05:23:27;20.20;;;11.32;;
22752;SDS011;11543;43.144;24.684;2022-08-21T05:25:53;16.98;;;9.75;;
22752;SDS011;11543;43.144;24.684;2022-08-21T05:28:19;18.27;;;8.85;;
22752;SDS011;11543;43.144;24.684;2022-08-21T05:30:44;17.73;;;7.60;;
22752;SDS011;11543;43.144;24.684;2022-08-21T05:33:10;10.43;;;6.50;;
22752;SDS011;11543;43.144;24.684;2022-08-21T05:35:37;11.73;;;7.05;;
22752;SDS011;11543;43.144;24.684;2022-08-21T05:38:03;13.32;;;6.50;;
22752;SDS011;11543;43.144;24.684;2022-08-21T05:40:30;13.80;;;6.75;;
22752;SDS011;11543;43.144;24.684;2022-08-21T05:42:56;15.15;;;6.32;;
22752;SDS011;11543;43.144;24.684;2022-08-21T05:45:26;15.32;;;5.95;;
22752;SDS011;11543;43.144;24.684;2022-08-21T05:47:57;12.45;;;5.85;;
22752;SDS011;11543;43.144;24.684;2022-08-21T05:50:22;12.13;;;5.97;;
22752;SDS011;11543;43.144;24.684;2022-08-21T05:52:50;12.45;;;5.65;;
22752;SDS011;11543;43.144;24.684;2022-08-21T05:55:16;11.93;;;5.03;;
22752;SDS011;11543;43.144;24.684;2022-08-21T05:57:41;12.82;;;5.35;;
22752;SDS011;11543;43.144;24.684;2022-08-21T06:00:07;12.68;;;5.25;;
22752;SDS011;11543;43.144;24.684;2022-08-21T06:02:35;10.82;;;5.28;;
22752;SDS011;11543;43.144;24.684;2022-08-21T06:05:01;13.50;;;5.75;;
22752;SDS011;11543;43.144;24.684;2022-08-21T06:07:27;10.20;;;4.80;;
22752;SDS011;11543;43.144;24.684;2022-08-21T06:09:53;12.52;;;5.00;;
22752;SDS011;11543;43.144;24.684;2022-08-21T06:12:19;14.00;;;4.90;;
22752;SDS011;11543;43.144;24.684;2022-08-21T06:14:45;9.98;;;4.93;;
22752;SDS011;11543;43.144;24.684;2022-08-21T06:17:11;9.93;;;4.82;;
22752;SDS011;11543;43.144;24.684;2022-08-21T06:19:37;11.85;;;5.22;;
22752;SDS011;11543;43.144;24.684;2022-08-21T06:22:03;14.57;;;5.68;;
22752;SDS011;11543;43.144;24.684;2022-08-21T06:24:29;10.18;;;5.07;;
22752;SDS011;11543;43.144;24.684;2022-08-21T06:26:58;10.45;;;5.10;;
22752;SDS011;11543;43.144;24.684;2022-08-21T06:29:29;10.38;;;5.60;;
22752;SDS011;11543;43.144;24.684;2022-08-21T06:31:55;9.15;;;5.05;;
22752;SDS011;11543;43.144;24.684;2022-08-21T06:34:20;11.15;;;4.88;;
22752;SDS011;11543;43.144;24.684;2022-08-21T06:36:48;9.77;;;4.63;;
22752;SDS011;11543;43.144;24.684;2022-08-21T06:39:13;13.60;;;4.78;;
22752;SDS011;11543;43.144;24.684;2022-08-21T06:41:39;9.75;;;4.57;;
22752;SDS011;11543;43.144;24.684;2022-08-21T06:44:04;10.02;;;4.75;;
22752;SDS011;11543;43.144;24.684;2022-08-21T06:46:31;11.48;;;4.75;;
22752;SDS011;11543;43.144;24.684;2022-08-21T06:48:57;13.27;;;5.25;;
22752;SDS011;11543;43.144;24.684;2022-08-21T06:51:23;9.52;;;4.88;;
22752;SDS011;11543;43.144;24.684;2022-08-21T06:53:50;14.55;;;5.10;;
22752;SDS011;11543;43.144;24.684;2022-08-21T06:56:15;7.40;;;4.18;;
22752;SDS011;11543;43.144;24.684;2022-08-21T06:58:41;9.82;;;4.53;;
22752;SDS011;11543;43.144;24.684;2022-08-21T07:01:07;11.85;;;4.47;;
22752;SDS011;11543;43.144;24.684;2022-08-21T07:03:34;14.65;;;4.75;;
22752;SDS011;11543;43.144;24.684;2022-08-21T07:06:02;12.52;;;6.80;;
22752;SDS011;11543;43.144;24.684;2022-08-21T07:08:30;15.48;;;6.88;;
22752;SDS011;11543;43.144;24.684;2022-08-21T07:10:57;11.48;;;5.65;;
22752;SDS011;11543;43.144;24.684;2022-08-21T07:13:24;14.27;;;4.88;;
22752;SDS011;11543;43.144;24.684;2022-08-21T07:15:50;10.82;;;5.10;;
22752;SDS011;11543;43.144;24.684;2022-08-21T07:18:15;12.88;;;5.30;;
22752;SDS011;11543;43.144;24.684;2022-08-21T07:20:41;11.88;;;4.57;;
22752;SDS011;11543;43.144;24.684;2022-08-21T07:23:09;12.43;;;5.10;;
22752;SDS011;11543;43.144;24.684;2022-08-21T07:25:48;11.55;;;4.72;;
22752;SDS011;11543;43.144;24.684;2022-08-21T07:28:13;12.27;;;4.60;;
22752;SDS011;11543;43.144;24.684;2022-08-21T07:30:39;8.70;;;4.70;;
22752;SDS011;11543;43.144;24.684;2022-08-21T07:33:04;8.93;;;4.50;;
22752;SDS011;11543;43.144;24.684;2022-08-21T07:35:30;14.15;;;4.80;;
22752;SDS011;11543;43.144;24.684;2022-08-21T07:37:56;8.93;;;4.57;;
22752;SDS011;11543;43.144;24.684;2022-08-21T07:40:22;12.27;;;4.28;;
22752;SDS011;11543;43.144;24.684;2022-08-21T07:42:47;11.32;;;5.00;;
22752;SDS011;11543;43.144;24.684;2022-08-21T07:45:16;10.93;;;4.57;;
22752;SDS011;11543;43.144;24.684;2022-08-21T07:47:44;9.75;;;4.43;;
22752;SDS011;11543;43.144;24.684;2022-08-21T07:50:10;10.68;;;4.45;;
22752;SDS011;11543;43.144;24.684;2022-08-21T07:52:37;16.42;;;4.95;;
22752;SDS011;11543;43.144;24.684;2022-08-21T07:55:03;9.85;;;4.57;;
22752;SDS011;11543;43.144;24.684;2022-08-21T07:57:29;6.65;;;4.00;;
22752;SDS011;11543;43.144;24.684;2022-08-21T07:59:55;11.48;;;3.97;;
22752;SDS011;11543;43.144;24.684;2022-08-21T08:02:24;9.30;;;3.90;;
22752;SDS011;11543;43.144;24.684;2022-08-21T08:04:50;6.57;;;3.60;;
22752;SDS011;11543;43.144;24.684;2022-08-21T08:07:16;9.65;;;4.25;;
22752;SDS011;11543;43.144;24.684;2022-08-21T08:09:42;15.00;;;4.85;;
22752;SDS011;11543;43.144;24.684;2022-08-21T08:12:08;10.82;;;5.22;;
22752;SDS011;11543;43.144;24.684;2022-08-21T08:14:33;11.23;;;4.50;;
22752;SDS011;11543;43.144;24.684;2022-08-21T08:16:59;11.05;;;4.43;;
22752;SDS011;11543;43.144;24.684;2022-08-21T08:19:25;13.65;;;4.68;;
22752;SDS011;11543;43.144;24.684;2022-08-21T08:21:50;11.77;;;4.55;;
22752;SDS011;11543;43.144;24.684;2022-08-21T08:24:16;8.98;;;4.00;;
22752;SDS011;11543;43.144;24.684;2022-08-21T08:26:41;12.82;;;4.25;;
22752;SDS011;11543;43.144;24.684;2022-08-21T08:29:07;8.93;;;4.03;;
22752;SDS011;11543;43.144;24.684;2022-08-21T08:31:32;10.05;;;4.20;;
22752;SDS011;11543;43.144;24.684;2022-08-21T08:33:58;10.55;;;4.40;;
22752;SDS011;11543;43.144;24.684;2022-08-21T08:36:31;9.75;;;4.32;;
22752;SDS011;11543;43.144;24.684;2022-08-21T08:38:59;10.68;;;3.75;;
22752;SDS011;11543;43.144;24.684;2022-08-21T08:41:26;12.18;;;4.72;;
22752;SDS011;11543;43.144;24.684;2022-08-21T08:43:53;11.15;;;4.68;;
22752;SDS011;11543;43.144;24.684;2022-08-21T08:46:29;14.45;;;6.30;;
22752;SDS011;11543;43.144;24.684;2022-08-21T08:49:08;14.98;;;9.52;;
22752;SDS011;11543;43.144;24.684;2022-08-21T08:51:50;14.85;;;8.00;;
22752;SDS011;11543;43.144;24.684;2022-08-21T08:54:21;11.40;;;5.90;;
22752;SDS011;11543;43.144;24.684;2022-08-21T08:57:10;12.05;;;5.38;;
22752;SDS011;11543;43.144;24.684;2022-08-21T08:59:43;15.40;;;5.72;;
22752;SDS011;11543;43.144;24.684;2022-08-21T09:02:12;12.43;;;5.33;;
22752;SDS011;11543;43.144;24.684;2022-08-21T09:04:39;14.85;;;7.05;;
22752;SDS011;11543;43.144;24.684;2022-08-21T09:07:13;12.07;;;5.97;;
22752;SDS011;11543;43.144;24.684;2022-08-21T09:12:39;9.43;;;6.70;;
22752;SDS011;11543;43.144;24.684;2022-08-21T09:18:37;13.30;;;6.32;;
22752;SDS011;11543;43.144;24.684;2022-08-21T09:21:33;9.32;;;5.38;;
22752;SDS011;11543;43.144;24.684;2022-08-21T09:24:02;13.63;;;6.15;;
22752;SDS011;11543;43.144;24.684;2022-08-21T09:29:36;13.60;;;4.90;;
22752;SDS011;11543;43.144;24.684;2022-08-21T09:32:04;12.37;;;5.87;;
22752;SDS011;11543;43.144;24.684;2022-08-21T09:34:39;13.35;;;4.97;;
22752;SDS011;11543;43.144;24.684;2022-08-21T09:37:05;10.93;;;5.20;;
22752;SDS011;11543;43.144;24.684;2022-08-21T09:39:42;11.45;;;5.10;;
22752;SDS011;11543;43.144;24.684;2022-08-21T09:42:09;10.68;;;4.78;;
22752;SDS011;11543;43.144;24.684;2022-08-21T09:44:37;10.48;;;4.82;;
22752;SDS011;11543;43.144;24.684;2022-08-21T09:47:09;14.98;;;5.50;;
22752;SDS011;11543;43.144;24.684;2022-08-21T09:49:40;10.55;;;4.40;;
22752;SDS011;11543;43.144;24.684;2022-08-21T09:52:17;14.23;;;4.80;;
22752;SDS011;11543;43.144;24.684;2022-08-21T09:54:48;12.73;;;5.10;;
22752;SDS011;11543;43.144;24.684;2022-08-21T09:57:25;10.30;;;4.70;;
22752;SDS011;11543;43.144;24.684;2022-08-21T10:00:26;10.07;;;5.38;;
22752;SDS011;11543;43.144;24.684;2022-08-21T10:02:54;11.43;;;4.72;;
22752;SDS011;11543;43.144;24.684;2022-08-21T10:05:32;13.10;;;4.80;;
22752;SDS011;11543;43.144;24.684;2022-08-21T10:07:58;9.15;;;5.05;;
22752;SDS011;11543;43.144;24.684;2022-08-21T10:10:28;12.85;;;4.88;;
22752;SDS011;11543;43.144;24.684;2022-08-21T10:15:37;13.85;;;5.25;;
22752;SDS011;11543;43.144;24.684;2022-08-21T10:21:27;11.15;;;5.53;;
22752;SDS011;11543;43.144;24.684;2022-08-21T10:24:06;9.00;;;5.45;;
22752;SDS011;11543;43.144;24.684;2022-08-21T10:26:52;6.75;;;4.70;;
22752;SDS011;11543;43.144;24.684;2022-08-21T10:32:16;10.23;;;4.78;;
22752;SDS011;11543;43.144;24.684;2022-08-21T10:40:58;10.85;;;4.70;;
22752;SDS011;11543;43.144;24.684;2022-08-21T10:49:32;16.95;;;5.15;;
22752;SDS011;11543;43.144;24.684;2022-08-21T10:55:10;11.13;;;4.72;;
22752;SDS011;11543;43.144;24.684;2022-08-21T10:57:55;14.30;;;5.53;;
22752;SDS011;11543;43.144;24.684;2022-08-21T11:00:30;11.65;;;5.05;;
22752;SDS011;11543;43.144;24.684;2022-08-21T11:03:03;19.38;;;4.93;;
22752;SDS011;11543;43.144;24.684;2022-08-21T11:05:38;11.95;;;4.80;;
22752;SDS011;11543;43.144;24.684;2022-08-21T11:08:16;9.60;;;4.70;;
22752;SDS011;11543;43.144;24.684;2022-08-21T11:10:59;13.43;;;4.78;;
22752;SDS011;11543;43.144;24.684;2022-08-21T11:13:43;9.18;;;4.38;;
22752;SDS011;11543;43.144;24.684;2022-08-21T11:16:21;10.07;;;4.45;;
22752;SDS011;11543;43.144;24.684;2022-08-21T11:19:07;7.22;;;3.90;;
22752;SDS011;11543;43.144;24.684;2022-08-21T11:27:06;13.35;;;4.50;;
22752;SDS011;11543;43.144;24.684;2022-08-21T11:29:48;13.07;;;4.13;;
22752;SDS011;11543;43.144;24.684;2022-08-21T11:32:27;13.13;;;4.10;;
22752;SDS011;11543;43.144;24.684;2022-08-21T11:38:00;11.50;;;4.05;;
22752;SDS011;11543;43.144;24.684;2022-08-21T11:43:29;10.55;;;4.00;;
22752;SDS011;11543;43.144;24.684;2022-08-21T11:46:10;10.70;;;3.97;;
22752;SDS011;11543;43.144;24.684;2022-08-21T11:51:04;8.90;;;3.60;;
22752;SDS011;11543;43.144;24.684;2022-08-21T11:53:39;13.43;;;3.72;;
22752;SDS011;11543;43.144;24.684;2022-08-21T11:56:24;13.05;;;3.95;;
22752;SDS011;11543;43.144;24.684;2022-08-21T11:59:00;8.27;;;3.40;;
22752;SDS011;11543;43.144;24.684;2022-08-21T12:04:35;9.88;;;3.55;;
22752;SDS011;11543;43.144;24.684;2022-08-21T12:07:10;8.98;;;3.63;;
22752;SDS011;11543;43.144;24.684;2022-08-21T12:09:38;7.10;;;3.43;;
22752;SDS011;11543;43.144;24.684;2022-08-21T12:12:06;18.02;;;9.77;;
22752;SDS011;11543;43.144;24.684;2022-08-21T12:14:40;10.93;;;3.83;;
22752;SDS011;11543;43.144;24.684;2022-08-21T12:17:09;8.25;;;4.00;;
22752;SDS011;11543;43.144;24.684;2022-08-21T12:19:44;13.43;;;5.00;;
22752;SDS011;11543;43.144;24.684;2022-08-21T12:22:13;11.55;;;5.20;;
22752;SDS011;11543;43.144;24.684;2022-08-21T12:24:43;8.93;;;3.65;;
22752;SDS011;11543;43.144;24.684;2022-08-21T12:29:55;7.80;;;3.42;;
22752;SDS011;11543;43.144;24.684;2022-08-21T12:34:55;8.50;;;2.90;;
22752;SDS011;11543;43.144;24.684;2022-08-21T12:37:40;12.27;;;3.20;;
22752;SDS011;11543;43.144;24.684;2022-08-21T12:40:21;6.88;;;3.13;;
22752;SDS011;11543;43.144;24.684;2022-08-21T12:42:51;10.65;;;4.07;;
22752;SDS011;11543;43.144;24.684;2022-08-21T12:48:14;10.55;;;3.25;;
22752;SDS011;11543;43.144;24.684;2022-08-21T12:50:52;9.55;;;3.10;;
22752;SDS011;11543;43.144;24.684;2022-08-21T12:53:33;7.38;;;3.40;;
22752;SDS011;11543;43.144;24.684;2022-08-21T12:56:09;11.50;;;3.90;;
22752;SDS011;11543;43.144;24.684;2022-08-21T12:58:40;11.82;;;3.75;;
22752;SDS011;11543;43.144;24.684;2022-08-21T13:01:18;10.27;;;3.53;;
22752;SDS011;11543;43.144;24.684;2022-08-21T13:03:45;11.55;;;3.90;;
22752;SDS011;11543;43.144;24.684;2022-08-21T13:06:15;13.50;;;3.83;;
22752;SDS011;11543;43.144;24.684;2022-08-21T13:08:44;11.68;;;3.20;;
22752;SDS011;11543;43.144;24.684;2022-08-21T13:11:12;8.18;;;2.90;;
22752;SDS011;11543;43.144;24.684;2022-08-21T13:13:42;12.88;;;2.95;;
22752;SDS011;11543;43.144;24.684;2022-08-21T13:16:08;8.73;;;2.67;;
22752;SDS011;11543;43.144;24.684;2022-08-21T13:18:35;8.70;;;2.78;;
22752;SDS011;11543;43.144;24.684;2022-08-21T13:21:16;18.63;;;6.75;;
22752;SDS011;11543;43.144;24.684;2022-08-21T13:23:42;7.75;;;3.20;;
22752;SDS011;11543;43.144;24.684;2022-08-21T13:26:14;10.85;;;3.35;;
22752;SDS011;11543;43.144;24.684;2022-08-21T13:28:41;11.65;;;3.65;;
22752;SDS011;11543;43.144;24.684;2022-08-21T13:31:07;15.63;;;4.88;;
22752;SDS011;11543;43.144;24.684;2022-08-21T13:33:38;9.57;;;4.00;;
22752;SDS011;11543;43.144;24.684;2022-08-21T13:36:09;12.80;;;5.38;;
22752;SDS011;11543;43.144;24.684;2022-08-21T13:38:39;13.82;;;5.70;;
22752;SDS011;11543;43.144;24.684;2022-08-21T13:43:44;12.55;;;6.57;;
22752;SDS011;11543;43.144;24.684;2022-08-21T13:46:12;13.07;;;5.57;;
22752;SDS011;11543;43.144;24.684;2022-08-21T13:48:40;15.15;;;6.55;;
22752;SDS011;11543;43.144;24.684;2022-08-21T13:51:07;12.50;;;4.40;;
22752;SDS011;11543;43.144;24.684;2022-08-21T13:53:45;14.63;;;5.10;;
22752;SDS011;11543;43.144;24.684;2022-08-21T13:56:27;9.82;;;4.00;;
22752;SDS011;11543;43.144;24.684;2022-08-21T13:58:56;10.07;;;4.35;;
22752;SDS011;11543;43.144;24.684;2022-08-21T14:02:08;13.63;;;4.30;;
22752;SDS011;11543;43.144;24.684;2022-08-21T14:04:37;11.73;;;4.15;;
22752;SDS011;11543;43.144;24.684;2022-08-21T14:07:16;15.48;;;6.82;;
22752;SDS011;11543;43.144;24.684;2022-08-21T14:09:51;12.45;;;5.72;;
22752;SDS011;11543;43.144;24.684;2022-08-21T14:12:19;13.15;;;6.40;;
22752;SDS011;11543;43.144;24.684;2022-08-21T14:14:51;14.80;;;6.68;;
22752;SDS011;11543;43.144;24.684;2022-08-21T14:17:33;20.38;;;8.93;;
22752;SDS011;11543;43.144;24.684;2022-08-21T14:20:03;16.10;;;9.73;;
22752;SDS011;11543;43.144;24.684;2022-08-21T14:22:36;17.77;;;8.13;;
22752;SDS011;11543;43.144;24.684;2022-08-21T14:25:14;14.65;;;7.72;;
22752;SDS011;11543;43.144;24.684;2022-08-21T14:32:58;16.35;;;5.40;;
22752;SDS011;11543;43.144;24.684;2022-08-21T14:35:24;10.63;;;5.03;;
22752;SDS011;11543;43.144;24.684;2022-08-21T14:37:51;11.90;;;4.13;;
22752;SDS011;11543;43.144;24.684;2022-08-21T14:40:19;10.10;;;4.30;;
22752;SDS011;11543;43.144;24.684;2022-08-21T14:42:48;16.42;;;8.07;;
22752;SDS011;11543;43.144;24.684;2022-08-21T14:45:15;15.98;;;7.05;;
22752;SDS011;11543;43.144;24.684;2022-08-21T14:47:46;14.95;;;6.10;;
22752;SDS011;11543;43.144;24.684;2022-08-21T14:50:12;13.35;;;5.60;;
22752;SDS011;11543;43.144;24.684;2022-08-21T14:52:40;13.63;;;5.22;;
22752;SDS011;11543;43.144;24.684;2022-08-21T14:55:08;11.63;;;5.07;;
22752;SDS011;11543;43.144;24.684;2022-08-21T14:57:43;12.95;;;5.03;;
22752;SDS011;11543;43.144;24.684;2022-08-21T15:00:20;14.02;;;5.25;;
22752;SDS011;11543;43.144;24.684;2022-08-21T15:02:48;15.45;;;6.20;;
22752;SDS011;11543;43.144;24.684;2022-08-21T15:05:17;14.95;;;5.80;;
22752;SDS011;11543;43.144;24.684;2022-08-21T15:07:43;10.25;;;5.57;;
22752;SDS011;11543;43.144;24.684;2022-08-21T15:10:10;12.18;;;4.78;;
22752;SDS011;11543;43.144;24.684;2022-08-21T15:12:37;10.00;;;4.47;;
22752;SDS011;11543;43.144;24.684;2022-08-21T15:15:06;11.57;;;5.72;;
22752;SDS011;11543;43.144;24.684;2022-08-21T15:17:32;17.13;;;6.05;;
22752;SDS011;11543;43.144;24.684;2022-08-21T15:19:58;12.43;;;6.30;;
22752;SDS011;11543;43.144;24.684;2022-08-21T15:22:24;16.10;;;7.45;;
22752;SDS011;11543;43.144;24.684;2022-08-21T15:24:50;14.38;;;7.50;;
22752;SDS011;11543;43.144;24.684;2022-08-21T15:27:16;17.33;;;5.75;;
22752;SDS011;11543;43.144;24.684;2022-08-21T15:29:44;15.98;;;6.30;;
22752;SDS011;11543;43.144;24.684;2022-08-21T15:34:44;14.20;;;6.18;;
22752;SDS011;11543;43.144;24.684;2022-08-21T15:37:09;17.45;;;6.35;;
22752;SDS011;11543;43.144;24.684;2022-08-21T15:39:35;16.45;;;6.50;;
22752;SDS011;11543;43.144;24.684;2022-08-21T15:42:01;14.23;;;6.15;;
22752;SDS011;11543;43.144;24.684;2022-08-21T15:44:30;12.10;;;5.70;;
22752;SDS011;11543;43.144;24.684;2022-08-21T15:46:59;18.08;;;6.55;;
22752;SDS011;11543;43.144;24.684;2022-08-21T15:49:25;15.30;;;6.47;;
22752;SDS011;11543;43.144;24.684;2022-08-21T15:51:50;12.48;;;5.88;;